createdAt,value
2017-10-08T00:03:01.634Z,100154
2017-10-08T00:08:05.610Z,100156
2017-10-08T00:13:08.841Z,100155
2017-10-08T00:18:12.026Z,100165
2017-10-08T00:23:15.247Z,100158
2017-10-08T00:28:18.466Z,100165
2017-10-08T00:33:21.679Z,100163
2017-10-08T00:38:25.636Z,100155
2017-10-08T00:43:28.949Z,100146
2017-10-08T00:48:32.301Z,100156
2017-10-08T00:53:35.516Z,100144
2017-10-08T00:58:38.712Z,100134
2017-10-08T01:03:41.908Z,100128
2017-10-08T01:08:46.246Z,100131
2017-10-08T01:13:49.457Z,100127
2017-10-08T01:18:52.609Z,100134
2017-10-08T01:23:55.976Z,100123
2017-10-08T01:28:59.121Z,100120
2017-10-08T01:34:02.300Z,100121
2017-10-08T01:39:05.500Z,100120
2017-10-08T01:44:08.690Z,100115
2017-10-08T01:49:11.870Z,100044
2017-10-08T01:54:15.065Z,100107
2017-10-08T01:59:18.251Z,100106
2017-10-08T02:04:22.205Z,100124
2017-10-08T02:09:25.395Z,100135
2017-10-08T02:14:28.583Z,100136
2017-10-08T02:19:32.538Z,100149
2017-10-08T02:24:35.762Z,100154
2017-10-08T02:29:38.958Z,100157
2017-10-08T02:34:42.160Z,100163
2017-10-08T02:39:45.340Z,100160
2017-10-08T02:44:49.281Z,100158
2017-10-08T02:49:52.471Z,100163
2017-10-08T02:54:56.432Z,100166
2017-10-08T02:59:59.652Z,100172
2017-10-08T03:05:02.858Z,100172
2017-10-08T03:10:06.054Z,100175
2017-10-08T03:15:09.218Z,100173
2017-10-08T03:20:13.189Z,100179
2017-10-08T03:25:16.381Z,100184
2017-10-08T03:30:19.769Z,100179
2017-10-08T03:35:23.734Z,100189
2017-10-08T03:40:26.921Z,100182
2017-10-08T03:45:30.093Z,100200
2017-10-08T03:50:34.061Z,100201
2017-10-08T03:55:37.281Z,100209
2017-10-08T04:00:40.469Z,100213
2017-10-08T04:05:43.658Z,100215
2017-10-08T04:10:46.876Z,100220
2017-10-08T04:15:50.086Z,100236
2017-10-08T04:20:53.248Z,100225
2017-10-08T04:25:57.200Z,100228
2017-10-08T04:31:00.383Z,100237
2017-10-08T04:36:04.400Z,100244
2017-10-08T04:41:08.572Z,100245
2017-10-08T04:46:11.764Z,100260
2017-10-08T04:51:14.976Z,100262
2017-10-08T04:56:18.179Z,100269
2017-10-08T05:01:22.420Z,100268
2017-10-08T05:06:25.757Z,100276
2017-10-08T05:11:28.964Z,100272
2017-10-08T05:16:32.168Z,100279
2017-10-08T05:21:35.374Z,100292
2017-10-08T05:26:38.581Z,100287
2017-10-08T05:31:41.763Z,100293
2017-10-08T05:36:45.044Z,100301
2017-10-08T05:41:49.999Z,100310
2017-10-08T05:46:53.949Z,100304
2017-10-08T05:51:57.383Z,100312
2017-10-08T05:57:00.573Z,100323
2017-10-08T06:02:03.822Z,100323
2017-10-08T06:07:07.002Z,100326
2017-10-08T06:12:10.178Z,100332
2017-10-08T06:17:13.365Z,100340
2017-10-08T06:22:17.323Z,100347
2017-10-08T06:27:20.514Z,100350
2017-10-08T06:32:23.828Z,100356
2017-10-08T06:37:27.040Z,100351
2017-10-08T06:42:30.321Z,100361
2017-10-08T06:47:34.271Z,100367
2017-10-08T06:52:37.469Z,100365
2017-10-08T06:57:41.392Z,100357
2017-10-08T07:02:46.131Z,100360
2017-10-08T07:07:49.341Z,100380
2017-10-08T07:12:52.581Z,100378
2017-10-08T07:17:55.831Z,100390
2017-10-08T07:22:59.012Z,100397
2017-10-08T07:28:02.303Z,100399
2017-10-08T07:33:05.580Z,100396
2017-10-08T07:38:08.809Z,100404
2017-10-08T07:43:12.006Z,100410
2017-10-08T07:48:15.246Z,100410
2017-10-08T07:53:18.481Z,100422
2017-10-08T07:58:22.477Z,100410
2017-10-08T08:03:25.703Z,100414
2017-10-08T08:08:28.894Z,100419
2017-10-08T08:13:33.143Z,100408
2017-10-08T08:18:36.372Z,100409
2017-10-08T08:23:40.807Z,100421
2017-10-08T08:28:44.826Z,100438
2017-10-08T08:33:48.833Z,100441
2017-10-08T08:38:52.049Z,100445
2017-10-08T08:43:55.286Z,100449
2017-10-08T08:48:58.496Z,100444
2017-10-08T08:54:01.739Z,100452
2017-10-08T08:59:04.969Z,100447
2017-10-08T09:04:08.175Z,100452
2017-10-08T09:09:11.808Z,100452
2017-10-08T09:14:15.021Z,100454
2017-10-08T09:19:20.039Z,100454
2017-10-08T09:24:23.273Z,100466
2017-10-08T09:29:27.433Z,100465
2017-10-08T09:34:30.666Z,100470
2017-10-08T09:39:33.924Z,100458
2017-10-08T09:44:37.910Z,100462
2017-10-08T09:49:42.256Z,100457
2017-10-08T09:54:45.441Z,100464
2017-10-08T09:59:48.675Z,100473
2017-10-08T10:04:51.891Z,100476
2017-10-08T10:09:56.056Z,100481
2017-10-08T10:14:59.250Z,100474
2017-10-08T10:20:02.537Z,100475
2017-10-08T10:25:06.543Z,100469
2017-10-08T10:30:10.722Z,100468
2017-10-08T10:35:13.925Z,100476
2017-10-08T10:40:17.970Z,100481
2017-10-08T10:45:21.385Z,100480
2017-10-08T10:50:25.704Z,100489
2017-10-08T10:55:28.937Z,100518
2017-10-08T11:00:32.181Z,100520
2017-10-08T11:05:36.157Z,100531
2017-10-08T11:10:39.377Z,100523
2017-10-08T11:15:42.585Z,100518
2017-10-08T11:20:45.813Z,100511
2017-10-08T11:25:49.020Z,100511
2017-10-08T11:30:52.260Z,100512
2017-10-08T11:35:56.248Z,100501
2017-10-08T11:41:00.231Z,100510
2017-10-08T11:46:03.857Z,100498
2017-10-08T11:51:07.043Z,100499
2017-10-08T11:56:10.288Z,100500
2017-10-08T12:01:13.512Z,100488
2017-10-08T12:06:16.747Z,100485
2017-10-08T12:11:20.888Z,100473
2017-10-08T12:16:24.097Z,100470
2017-10-08T12:21:28.058Z,100471
2017-10-08T12:26:31.325Z,100466
2017-10-08T12:31:35.299Z,100476
2017-10-08T12:36:38.491Z,100474
2017-10-08T12:41:41.705Z,100471
2017-10-08T12:46:44.906Z,100475
2017-10-08T12:51:48.117Z,100466
2017-10-08T12:56:51.306Z,100461
2017-10-08T13:01:54.514Z,100467
2017-10-08T13:06:57.723Z,100468
2017-10-08T13:12:00.919Z,100474
2017-10-08T13:17:04.132Z,100480
2017-10-08T13:22:07.341Z,100479
2017-10-08T13:27:10.530Z,100489
2017-10-08T13:32:13.739Z,100483
2017-10-08T13:37:16.929Z,100480
2017-10-08T13:42:20.909Z,100478
2017-10-08T13:47:24.204Z,100486
2017-10-08T13:52:27.420Z,100496
2017-10-08T13:57:30.609Z,100506
2017-10-08T14:02:33.814Z,100506
2017-10-08T14:07:37.043Z,100504
2017-10-08T14:12:40.251Z,100512
2017-10-08T14:17:43.467Z,100505
2017-10-08T14:22:46.668Z,100511
2017-10-08T14:27:49.873Z,100505
2017-10-08T14:32:53.089Z,100512
2017-10-08T14:37:56.289Z,100510
2017-10-08T14:42:59.458Z,100530
2017-10-08T14:48:02.681Z,100519
2017-10-08T14:53:05.973Z,100518
2017-10-08T14:58:09.208Z,100529
2017-10-08T15:03:12.626Z,100526
2017-10-08T15:08:15.822Z,100536
2017-10-08T15:13:19.034Z,100537
2017-10-08T15:18:22.241Z,100544
2017-10-08T15:23:25.503Z,100563
2017-10-08T15:28:30.349Z,100573
2017-10-08T15:33:34.334Z,100565
2017-10-08T15:38:37.542Z,100560
2017-10-08T15:43:40.745Z,100569
2017-10-08T15:48:43.934Z,100566
2017-10-08T15:53:47.218Z,100578
2017-10-08T15:58:50.419Z,100588
2017-10-08T16:03:53.644Z,100580
2017-10-08T16:08:56.848Z,100589
2017-10-08T16:14:00.058Z,100598
2017-10-08T16:19:03.296Z,100596
2017-10-08T16:24:06.532Z,100603
2017-10-08T16:29:10.051Z,100604
2017-10-08T16:34:14.016Z,100605
2017-10-08T16:39:17.227Z,100617
2017-10-08T16:44:20.425Z,100612
2017-10-08T16:49:23.601Z,100630
2017-10-08T16:54:27.553Z,100642
2017-10-08T16:59:30.779Z,100651
2017-10-08T17:04:33.982Z,100654
2017-10-08T17:09:37.196Z,100665
2017-10-08T17:14:40.436Z,100672
2017-10-08T17:19:43.685Z,100684
2017-10-08T17:24:46.894Z,100682
2017-10-08T17:29:50.075Z,100675
2017-10-08T17:34:54.080Z,100687
2017-10-08T17:39:57.376Z,100684
2017-10-08T17:45:00.584Z,100689
2017-10-08T17:50:03.808Z,100688
2017-10-08T17:55:07.792Z,100703
2017-10-08T18:00:11.599Z,100712
2017-10-08T18:05:14.823Z,100704
2017-10-08T18:10:18.062Z,100728
2017-10-08T18:15:21.332Z,100731
2017-10-08T18:20:24.555Z,100717
2017-10-08T18:25:27.792Z,100724
2017-10-08T18:30:32.015Z,100733
2017-10-08T18:35:35.253Z,100732
2017-10-08T18:40:38.475Z,100729
2017-10-08T18:45:41.892Z,100730
2017-10-08T18:50:45.188Z,100734
2017-10-08T18:55:48.686Z,100762
2017-10-08T19:00:52.300Z,100747
2017-10-08T19:05:55.829Z,100757
2017-10-08T19:10:59.407Z,100766
2017-10-08T19:16:02.950Z,100756
2017-10-08T19:21:06.527Z,100753
2017-10-08T19:26:10.896Z,100757
2017-10-08T19:31:14.408Z,100753
2017-10-08T19:36:17.931Z,100761
2017-10-08T19:41:22.411Z,100762
2017-10-08T19:46:26.532Z,100751
2017-10-08T19:51:29.793Z,100760
2017-10-08T19:56:33.413Z,100769
2017-10-08T20:01:37.034Z,100753
2017-10-08T20:06:40.651Z,100771
2017-10-08T20:11:44.032Z,100778
2017-10-08T20:16:48.004Z,100780
2017-10-08T20:21:51.220Z,100788
2017-10-08T20:26:54.434Z,100799
2017-10-08T20:31:57.668Z,100797
2017-10-08T20:37:00.876Z,100804
2017-10-08T20:42:04.989Z,100810
2017-10-08T20:47:08.178Z,100812
2017-10-08T20:52:11.406Z,100816
2017-10-08T20:57:14.629Z,100816
2017-10-08T21:02:17.834Z,100823
2017-10-08T21:07:21.062Z,100829
2017-10-08T21:12:25.054Z,100826
2017-10-08T21:17:28.235Z,100833
2017-10-08T21:22:31.436Z,100835
2017-10-08T21:27:34.631Z,100847
2017-10-08T21:32:37.845Z,100848
2017-10-08T21:37:41.059Z,100852
2017-10-08T21:42:44.282Z,100848
2017-10-08T21:47:47.487Z,100860
2017-10-08T21:52:50.685Z,100863
2017-10-08T21:57:54.109Z,100857
2017-10-08T22:02:57.310Z,100868
2017-10-08T22:08:00.499Z,100869
2017-10-08T22:13:03.705Z,100862
2017-10-08T22:18:06.901Z,100864
2017-10-08T22:23:10.144Z,100856
2017-10-08T22:28:13.347Z,100847
2017-10-08T22:33:16.532Z,100847
2017-10-08T22:38:19.767Z,100859
2017-10-08T22:43:22.969Z,100861
2017-10-08T22:48:26.154Z,100847
2017-10-08T22:53:29.357Z,100847
2017-10-08T22:58:32.569Z,100848
2017-10-08T23:03:35.772Z,100845
2017-10-08T23:08:38.977Z,100838
2017-10-08T23:13:42.857Z,100843
2017-10-08T23:18:46.055Z,100837
2017-10-08T23:23:49.271Z,100848
2017-10-08T23:28:52.483Z,100844
2017-10-08T23:33:55.678Z,100848
2017-10-08T23:38:58.876Z,100852
2017-10-08T23:44:02.065Z,100851
2017-10-08T23:49:05.279Z,100848
2017-10-08T23:54:08.486Z,100849
2017-10-08T23:59:11.692Z,100848
